Time;durP1;ratioP1;P1;durP2;ratioP2;P2;SDS_P1;SDS_P2;PMS_P1;PMS_P2;Temp;Humidity;BMP_temperature;BMP_pressure;BME280_temperature;BME280_humidity;BME280_pressure;Samples;Min_cycle;Max_cycle;Signal;HPM_P1;HPM_P2
2023/05/02 00:00:33;;;;;;;7.05;3.25;;;4.30;94.30;;;;;;4983367;28;20023;-83
2023/05/02 00:03:00;;;;;;;4.35;2.40;;;4.30;94.40;;;;;;4978780;28;20023;-83
2023/05/02 00:05:26;;;;;;;2.40;1.98;;;4.30;94.50;;;;;;4980305;28;20045;-82
2023/05/02 00:07:52;;;;;;;4.65;2.60;;;4.20;94.50;;;;;;4985582;28;20082;-84
2023/05/02 00:10:18;;;;;;;3.13;2.45;;;4.20;94.60;;;;;;4984778;28;20413;-84
2023/05/02 00:12:44;;;;;;;3.35;2.08;;;4.20;94.80;;;;;;4977414;28;20083;-82
2023/05/02 00:15:10;;;;;;;2.53;2.15;;;4.20;94.80;;;;;;4959456;28;20603;-83
2023/05/02 00:17:39;;;;;;;3.45;2.45;;;4.10;94.80;;;;;;4977538;28;20031;-81
2023/05/02 00:20:05;;;;;;;5.32;2.75;;;4.10;94.80;;;;;;4976561;28;20118;-83
2023/05/02 00:22:31;;;;;;;5.55;2.63;;;4.10;94.90;;;;;;4994129;28;20022;-83
2023/05/02 00:24:57;;;;;;;4.88;2.75;;;4.10;95.00;;;;;;4966245;28;20485;-83
2023/05/02 00:27:23;;;;;;;4.85;2.30;;;4.10;95.00;;;;;;4980780;28;20031;-84
2023/05/02 00:29:51;;;;;;;3.40;2.28;;;4.00;95.10;;;;;;4985693;28;20019;-84
2023/05/02 00:32:17;;;;;;;7.22;2.38;;;4.00;95.10;;;;;;4963917;28;20038;-82
2023/05/02 00:34:43;;;;;;;7.38;2.67;;;4.00;95.20;;;;;;4978992;28;20050;-83
2023/05/02 00:37:09;;;;;;;5.45;2.47;;;4.00;95.30;;;;;;4982480;28;20080;-83
2023/05/02 00:39:36;;;;;;;3.15;2.42;;;3.90;95.40;;;;;;4959583;28;20037;-81
2023/05/02 00:42:02;;;;;;;4.28;3.00;;;3.90;95.40;;;;;;4964256;28;20023;-84
2023/05/02 00:44:28;;;;;;;4.05;3.00;;;3.90;95.50;;;;;;4976657;28;20034;-84
2023/05/02 00:46:55;;;;;;;4.47;2.90;;;3.90;95.60;;;;;;4977023;28;20026;-82
2023/05/02 00:49:21;;;;;;;3.83;2.65;;;3.80;95.70;;;;;;4960671;28;20030;-83
2023/05/02 00:51:46;;;;;;;3.85;2.40;;;3.80;95.70;;;;;;4978965;28;20031;-82
2023/05/02 00:54:13;;;;;;;6.90;2.67;;;3.80;95.70;;;;;;4978656;28;20027;-82
2023/05/02 00:56:40;;;;;;;5.15;2.90;;;3.80;95.80;;;;;;4976348;28;20027;-82
2023/05/02 00:59:09;;;;;;;3.95;2.53;;;3.70;95.90;;;;;;4978277;28;20023;-81
2023/05/02 01:01:43;;;;;;;3.95;2.90;;;3.70;95.90;;;;;;4976391;28;20073;-82
2023/05/02 01:04:15;;;;;;;3.72;2.55;;;3.70;96.00;;;;;;4977173;28;20023;-82
2023/05/02 01:06:41;;;;;;;3.45;2.60;;;3.70;96.10;;;;;;4974918;28;20119;-81
2023/05/02 01:09:13;;;;;;;5.38;2.22;;;3.70;96.00;;;;;;4988957;28;20019;-82
2023/05/02 01:11:48;;;;;;;3.50;2.90;;;3.70;96.00;;;;;;4975994;28;20403;-81
2023/05/02 01:14:14;;;;;;;2.90;2.20;;;3.80;96.10;;;;;;4957671;28;20050;-83
2023/05/02 01:16:44;;;;;;;4.75;2.85;;;3.70;96.00;;;;;;4974995;28;20480;-82
2023/05/02 01:19:18;;;;;;;4.65;2.80;;;3.70;96.10;;;;;;4975081;28;20046;-81
2023/05/02 01:21:45;;;;;;;5.57;2.55;;;3.70;96.20;;;;;;4976033;28;20484;-83
2023/05/02 01:24:24;;;;;;;3.47;2.35;;;3.60;96.20;;;;;;4967978;28;20448;-82
2023/05/02 01:27:27;;;;;;;6.05;3.05;;;3.60;96.30;;;;;;4989055;28;20037;-84
2023/05/02 01:29:53;;;;;;;8.25;2.33;;;3.60;96.40;;;;;;4906347;29;20039;-80
2023/05/02 01:32:22;;;;;;;3.87;2.77;;;3.60;96.40;;;;;;4969169;28;20031;-83
2023/05/02 01:34:51;;;;;;;6.25;2.72;;;3.50;96.50;;;;;;4987795;28;20269;-81
2023/05/02 01:37:18;;;;;;;5.78;3.15;;;3.50;96.50;;;;;;4976956;28;20034;-82
2023/05/02 01:39:46;;;;;;;4.03;2.60;;;3.50;96.50;;;;;;4974836;28;20077;-82
2023/05/02 01:42:12;;;;;;;;;;;3.50;96.60;;;;;;4974887;28;20030;-80
2023/05/02 01:44:40;;;;;;;5.25;2.45;;;3.50;96.40;;;;;;4985371;28;19936;-80
2023/05/02 01:47:07;;;;;;;5.78;3.05;;;3.50;96.50;;;;;;4976153;28;20023;-80
2023/05/02 01:49:34;;;;;;;5.78;3.55;;;3.40;96.60;;;;;;4984392;28;20046;-81
2023/05/02 01:52:06;;;;;;;5.63;2.67;;;3.40;96.80;;;;;;4985896;28;20504;-84
2023/05/02 01:54:35;;;;;;;4.63;3.08;;;3.40;96.90;;;;;;4979698;28;20066;-83
2023/05/02 01:57:05;;;;;;;5.03;2.72;;;3.40;96.90;;;;;;4979455;28;20037;-81
2023/05/02 01:59:33;;;;;;;6.85;2.70;;;3.40;97.00;;;;;;4986090;28;20401;-83
2023/05/02 02:02:01;;;;;;;7.18;3.13;;;3.50;97.10;;;;;;4972644;28;20034;-82
2023/05/02 02:04:28;;;;;;;3.50;2.58;;;3.40;97.10;;;;;;4985956;28;20101;-84
2023/05/02 02:06:59;;;;;;;4.15;3.42;;;3.50;97.20;;;;;;4981767;28;20047;-82
2023/05/02 02:09:26;;;;;;;4.45;3.00;;;3.50;97.20;;;;;;4974795;28;20429;-83
2023/05/02 02:11:56;;;;;;;4.22;3.05;;;3.50;97.20;;;;;;4974533;28;20444;-83
2023/05/02 02:14:26;;;;;;;7.65;3.47;;;3.60;97.20;;;;;;4963677;28;20015;-81
2023/05/02 02:16:56;;;;;;;9.00;3.60;;;3.50;97.20;;;;;;4974281;28;20038;-83
2023/05/02 02:19:23;;;;;;;4.68;2.75;;;3.60;97.20;;;;;;4957130;28;20023;-84
2023/05/02 02:21:50;;;;;;;4.07;3.50;;;3.60;97.30;;;;;;4973585;28;20083;-84
2023/05/02 02:24:19;;;;;;;6.57;3.08;;;3.70;97.20;;;;;;4986402;28;20357;-83
2023/05/02 02:26:45;;;;;;;4.55;3.15;;;3.70;97.20;;;;;;4974113;28;20094;-82
2023/05/02 02:29:11;;;;;;;4.68;2.88;;;3.80;97.20;;;;;;4987699;28;20022;-82
2023/05/02 02:31:38;;;;;;;4.97;3.25;;;3.80;97.10;;;;;;4973943;28;20389;-83
2023/05/02 02:34:05;;;;;;;5.27;2.77;;;4.00;97.00;;;;;;4976079;28;20038;-82
2023/05/02 02:36:59;;;;;;;6.90;3.08;;;4.00;96.80;;;;;;4973848;28;20026;-83
2023/05/02 02:39:38;;;;;;;8.82;3.50;;;4.10;96.60;;;;;;4968219;28;20043;-80
2023/05/02 02:42:17;;;;;;;5.88;2.63;;;4.20;96.50;;;;;;4970639;28;20030;-80
2023/05/02 02:45:17;;;;;;;5.13;3.10;;;4.30;96.40;;;;;;4981827;28;20507;-80
2023/05/02 02:48:01;;;;;;;4.63;2.65;;;4.40;96.20;;;;;;4977994;28;20033;-81
2023/05/02 02:50:48;;;;;;;5.65;3.20;;;4.50;95.90;;;;;;4984491;28;20055;-82
2023/05/02 02:53:24;;;;;;;7.45;2.97;;;4.60;95.70;;;;;;4975707;28;20034;-82
2023/05/02 02:56:01;;;;;;;5.57;2.75;;;4.60;95.50;;;;;;4979574;28;20023;-82
2023/05/02 02:58:33;;;;;;;;;;;4.70;95.30;;;;;;4976076;28;20531;-83
2023/05/02 03:01:03;;;;;;;4.22;2.55;;;4.70;95.30;;;;;;4986012;28;20411;-82
2023/05/02 03:03:31;;;;;;;5.70;2.65;;;4.70;95.00;;;;;;4957170;28;20019;-82
2023/05/02 03:05:57;;;;;;;5.90;2.75;;;4.80;94.90;;;;;;4973704;28;20054;-82
2023/05/02 03:08:23;;;;;;;3.40;2.58;;;4.90;94.80;;;;;;4975160;28;20033;-82
2023/05/02 03:10:49;;;;;;;4.78;2.50;;;5.00;94.60;;;;;;4972880;28;20035;-83
2023/05/02 03:13:15;;;;;;;4.88;2.65;;;5.10;94.50;;;;;;4956279;28;20042;-83
2023/05/02 03:15:58;;;;;;;3.53;2.63;;;5.20;94.30;;;;;;4976821;28;20022;-82
2023/05/02 03:18:24;;;;;;;5.38;3.78;;;5.30;94.10;;;;;;4983433;28;20026;-83
2023/05/02 03:20:50;;;;;;;4.68;2.72;;;5.40;94.00;;;;;;4973060;28;20022;-83
2023/05/02 03:23:16;;;;;;;9.27;3.00;;;5.40;93.90;;;;;;4955848;28;20031;-84
2023/05/02 03:25:41;;;;;;;7.05;2.58;;;5.50;93.70;;;;;;4962694;28;20030;-81
2023/05/02 03:28:07;;;;;;;3.42;2.80;;;5.60;93.60;;;;;;4981479;28;20448;-84
2023/05/02 03:30:34;;;;;;;3.22;2.92;;;5.70;93.30;;;;;;4982707;28;20074;-83
2023/05/02 03:33:00;;;;;;;5.97;2.67;;;5.80;92.70;;;;;;4979555;28;20084;-84
2023/05/02 03:35:26;;;;;;;3.00;2.42;;;5.90;92.40;;;;;;4979487;28;20049;-84
2023/05/02 03:37:52;;;;;;;4.20;2.67;;;6.00;92.10;;;;;;4977661;28;20110;-84
2023/05/02 03:40:20;;;;;;;3.38;2.78;;;6.00;92.00;;;;;;4985012;28;20114;-82
2023/05/02 03:42:46;;;;;;;4.88;3.13;;;6.10;92.00;;;;;;4994065;28;20030;-83
2023/05/02 03:45:12;;;;;;;13.55;3.50;;;6.10;92.00;;;;;;4984380;28;20399;-84
2023/05/02 03:47:38;;;;;;;7.03;3.42;;;6.20;92.00;;;;;;4962682;28;20142;-84
2023/05/02 03:50:04;;;;;;;4.78;3.17;;;6.30;92.00;;;;;;4981069;28;20058;-84
2023/05/02 03:52:30;;;;;;;4.93;3.17;;;6.40;91.80;;;;;;4962805;28;20074;-83
2023/05/02 03:54:56;;;;;;;6.60;3.38;;;6.50;91.60;;;;;;4982620;28;20021;-82
2023/05/02 03:57:22;;;;;;;5.20;3.30;;;6.60;91.30;;;;;;4972464;28;20032;-84
2023/05/02 03:59:48;;;;;;;5.97;2.85;;;6.60;90.80;;;;;;4956499;28;20080;-84
2023/05/02 04:02:15;;;;;;;5.78;3.22;;;6.70;91.10;;;;;;4968811;28;20015;-84
2023/05/02 04:04:41;;;;;;;4.63;2.88;;;6.80;91.10;;;;;;4960311;28;20030;-83
2023/05/02 04:07:15;;;;;;;4.28;2.80;;;6.90;90.70;;;;;;4977759;28;20048;-84
2023/05/02 04:09:41;;;;;;;3.88;2.55;;;7.00;90.50;;;;;;4966823;28;20058;-84
2023/05/02 04:12:07;;;;;;;6.93;2.70;;;7.10;90.30;;;;;;4955406;28;20069;-85
2023/05/02 04:14:33;;;;;;;3.60;2.83;;;7.20;90.30;;;;;;4976868;28;20101;-83
2023/05/02 04:17:03;;;;;;;4.85;2.83;;;7.30;89.30;;;;;;4981864;28;20446;-83
2023/05/02 04:19:29;;;;;;;5.15;2.92;;;7.40;88.20;;;;;;4979442;28;20074;-83
2023/05/02 04:21:55;;;;;;;5.65;3.03;;;7.40;88.10;;;;;;4977849;28;20050;-84
2023/05/02 04:24:21;;;;;;;6.97;2.92;;;7.50;87.90;;;;;;4958249;28;20015;-84
2023/05/02 04:26:47;;;;;;;4.03;3.28;;;7.60;87.50;;;;;;4961244;28;20061;-84
2023/05/02 04:29:14;;;;;;;3.28;2.83;;;7.60;86.60;;;;;;4977535;28;20041;-83
2023/05/02 04:31:40;;;;;;;3.95;3.13;;;7.70;86.30;;;;;;4958377;28;20047;-83
2023/05/02 04:34:06;;;;;;;10.25;2.97;;;7.80;86.60;;;;;;4952765;28;20111;-83
2023/05/02 04:36:33;;;;;;;5.22;3.20;;;7.80;86.10;;;;;;4980888;28;20070;-83
2023/05/02 04:38:59;;;;;;;5.30;3.40;;;7.90;86.60;;;;;;4970198;28;20050;-84
2023/05/02 04:41:25;;;;;;;5.15;3.13;;;8.00;86.60;;;;;;4947303;28;20067;-84
2023/05/02 04:43:51;;;;;;;6.38;3.28;;;8.20;86.60;;;;;;4977453;28;20026;-84
2023/05/02 04:46:17;;;;;;;5.53;3.53;;;8.70;86.50;;;;;;4966786;28;20054;-83
2023/05/02 04:48:43;;;;;;;9.40;2.80;;;9.50;85.40;;;;;;4979129;28;20046;-84
2023/05/02 04:51:09;;;;;;;5.57;3.42;;;10.70;81.10;;;;;;4969228;28;20043;-85
2023/05/02 04:53:38;;;;;;;7.15;3.25;;;11.80;76.80;;;;;;4969658;28;20476;-84
2023/05/02 04:56:05;;;;;;;6.28;3.08;;;12.90;72.70;;;;;;4979196;28;20026;-85
2023/05/02 04:58:31;;;;;;;6.43;3.30;;;14.00;69.60;;;;;;4964674;28;20019;-85
2023/05/02 05:00:57;;;;;;;6.55;2.97;;;14.90;65.40;;;;;;4962894;28;20117;-86
2023/05/02 05:03:23;;;;;;;6.82;3.10;;;15.50;61.30;;;;;;4980766;28;20046;-85
2023/05/02 05:05:49;;;;;;;4.47;3.50;;;16.10;59.40;;;;;;4967639;28;20061;-84
2023/05/02 05:08:15;;;;;;;4.35;2.92;;;16.50;57.20;;;;;;4978451;28;20027;-87
2023/05/02 05:10:45;;;;;;;6.72;3.08;;;16.90;55.40;;;;;;4997334;28;20106;-86
2023/05/02 05:13:12;;;;;;;5.07;2.78;;;17.30;54.20;;;;;;4968271;28;20129;-86
2023/05/02 05:15:39;;;;;;;8.15;3.50;;;17.70;53.10;;;;;;4997169;28;20026;-84
2023/05/02 05:18:05;;;;;;;9.70;3.67;;;18.10;51.60;;;;;;4994788;28;20042;-85
2023/05/02 05:20:32;;;;;;;7.25;3.50;;;18.70;50.50;;;;;;4989414;28;20025;-85
2023/05/02 05:22:58;;;;;;;12.50;3.22;;;19.10;49.10;;;;;;4972840;28;20048;-84
2023/05/02 05:25:27;;;;;;;9.80;3.17;;;19.60;47.80;;;;;;4978644;28;20031;-87
2023/05/02 05:27:56;;;;;;;5.90;2.70;;;20.10;46.40;;;;;;4974244;28;20031;-86
2023/05/02 05:30:22;;;;;;;8.73;2.85;;;20.20;44.50;;;;;;4977291;28;20030;-84
2023/05/02 05:32:48;;;;;;;5.95;2.65;;;20.20;45.00;;;;;;4989080;28;20063;-85
2023/05/02 05:35:14;;;;;;;8.98;3.20;;;20.60;44.60;;;;;;4976052;28;20034;-84
2023/05/02 05:37:39;;;;;;;5.43;2.53;;;21.30;43.50;;;;;;4974109;28;20090;-85
2023/05/02 05:40:09;;;;;;;11.80;4.00;;;22.00;41.60;;;;;;4975682;28;20050;-84
2023/05/02 05:42:35;;;;;;;11.18;2.95;;;22.70;41.50;;;;;;4971944;28;20027;-85
2023/05/02 05:45:01;;;;;;;7.30;2.92;;;23.00;39.90;;;;;;4977423;28;20058;-83
2023/05/02 05:47:27;;;;;;;8.70;2.93;;;23.40;38.90;;;;;;4965205;28;20114;-85
2023/05/02 05:49:54;;;;;;;5.00;2.38;;;24.10;36.60;;;;;;4971004;28;20085;-85
2023/05/02 05:52:20;;;;;;;4.70;2.30;;;24.20;36.10;;;;;;4947072;29;20070;-85
2023/05/02 05:54:46;;;;;;;5.88;2.38;;;24.60;36.00;;;;;;4975012;28;20095;-85
2023/05/02 05:57:12;;;;;;;4.57;2.47;;;25.20;34.70;;;;;;4973835;28;20031;-85
2023/05/02 05:59:38;;;;;;;3.20;1.67;;;25.40;34.20;;;;;;4984895;28;20030;-85
2023/05/02 06:02:04;;;;;;;5.28;2.00;;;26.10;33.50;;;;;;4983096;28;20046;-85
2023/05/02 06:04:30;;;;;;;3.92;1.58;;;26.70;32.60;;;;;;4982635;28;20122;-85
2023/05/02 06:06:56;;;;;;;4.50;1.65;;;27.10;32.40;;;;;;4976608;28;20038;-84
2023/05/02 06:09:22;;;;;;;6.50;1.63;;;27.30;31.30;;;;;;4983600;28;20388;-85
2023/05/02 06:11:48;;;;;;;3.38;1.60;;;27.40;31.60;;;;;;4980205;28;20045;-85
2023/05/02 06:14:15;;;;;;;3.85;2.08;;;28.30;31.00;;;;;;4979132;28;20023;-84
2023/05/02 06:16:41;;;;;;;3.35;2.10;;;28.20;30.30;;;;;;4983820;28;20385;-86
2023/05/02 06:19:07;;;;;;;3.03;1.77;;;28.10;30.10;;;;;;4986525;28;20029;-85
2023/05/02 06:21:35;;;;;;;4.60;1.45;;;28.10;29.90;;;;;;4995448;28;20063;-85
2023/05/02 06:24:01;;;;;;;1.50;1.02;;;28.30;29.10;;;;;;4989609;28;20112;-87
2023/05/02 06:26:27;;;;;;;1.65;1.02;;;28.50;28.70;;;;;;4985213;28;20054;-87
2023/05/02 06:28:54;;;;;;;1.95;0.98;;;28.70;28.80;;;;;;4969149;28;20046;-87
2023/05/02 06:31:21;;;;;;;;;;;29.00;28.50;;;;;;4970001;28;20544;-84
2023/05/02 06:33:47;;;;;;;6.55;1.42;;;29.80;30.10;;;;;;4969729;28;19910;-83
2023/05/02 06:36:13;;;;;;;4.78;1.52;;;30.00;27.80;;;;;;4978746;28;20022;-83
2023/05/02 06:38:38;;;;;;;1.90;1.10;;;30.10;27.90;;;;;;4987350;28;20046;-84
2023/05/02 06:41:04;;;;;;;6.65;1.23;;;29.70;27.50;;;;;;4960006;28;20045;-86
2023/05/02 06:43:32;;;;;;;1.97;1.23;;;29.20;27.50;;;;;;4950726;28;20050;-87
2023/05/02 06:45:59;;;;;;;4.53;1.27;;;29.00;27.70;;;;;;4972551;28;20022;-85
2023/05/02 06:48:25;;;;;;;4.95;3.70;;;29.20;27.40;;;;;;4965106;28;20015;-86
2023/05/02 06:50:53;;;;;;;3.38;1.38;;;28.80;27.30;;;;;;4997066;28;20102;-85
2023/05/02 06:53:18;;;;;;;2.35;1.40;;;28.40;27.50;;;;;;4963696;28;20039;-86
2023/05/02 06:55:45;;;;;;;3.13;1.35;;;28.30;28.00;;;;;;4958893;28;20027;-86
2023/05/02 06:58:11;;;;;;;2.97;1.25;;;28.40;27.70;;;;;;4975934;28;20089;-86
2023/05/02 07:00:37;;;;;;;2.97;1.30;;;28.70;27.80;;;;;;4983085;28;20023;-86
2023/05/02 07:03:03;;;;;;;2.67;1.05;;;29.20;27.90;;;;;;4992342;28;20039;-86
2023/05/02 07:05:30;;;;;;;3.60;1.37;;;29.90;27.50;;;;;;4978914;28;20073;-90
2023/05/02 07:07:55;;;;;;;2.25;1.38;;;30.40;27.10;;;;;;5006603;28;20022;-88
2023/05/02 07:10:22;;;;;;;4.00;1.40;;;30.50;26.70;;;;;;4985318;28;20487;-86
2023/05/02 07:12:49;;;;;;;3.72;1.33;;;30.70;27.30;;;;;;4985100;28;20074;-90
2023/05/02 07:15:15;;;;;;;3.67;1.20;;;31.00;26.60;;;;;;4980009;28;20023;-84
2023/05/02 07:17:42;;;;;;;2.67;1.10;;;31.30;26.40;;;;;;4986115;28;20399;-86
2023/05/02 07:20:09;;;;;;;0.90;0.70;;;30.60;25.80;;;;;;4989867;28;20051;-85
2023/05/02 07:22:39;;;;;;;2.95;0.90;;;30.40;25.70;;;;;;4984960;28;20083;-86
2023/05/02 07:25:06;;;;;;;1.65;0.93;;;30.60;26.20;;;;;;4988281;28;20046;-86
2023/05/02 07:27:32;;;;;;;1.30;0.83;;;30.90;25.80;;;;;;5002724;28;20018;-87
2023/05/02 07:29:58;;;;;;;5.00;1.17;;;30.30;25.70;;;;;;4986951;28;20033;-90
2023/05/02 07:32:25;;;;;;;1.93;0.97;;;30.40;26.20;;;;;;4928808;29;20048;-88
2023/05/02 07:34:55;;;;;;;1.90;1.25;;;31.00;25.80;;;;;;4961586;28;20683;-90
2023/05/02 07:37:22;;;;;;;3.40;1.10;;;31.50;26.10;;;;;;4944693;29;20075;-90
2023/05/02 07:39:48;;;;;;;7.10;1.25;;;32.40;26.10;;;;;;4928576;29;20108;-89
2023/05/02 07:42:14;;;;;;;3.80;1.00;;;33.40;25.70;;;;;;4953753;29;20031;-86
2023/05/02 07:44:40;;;;;;;2.53;1.00;;;33.80;25.20;;;;;;4940474;29;20095;-88
2023/05/02 07:47:08;;;;;;;1.45;0.90;;;33.70;24.80;;;;;;4963483;29;20092;-86
2023/05/02 07:49:35;;;;;;;3.08;1.70;;;33.40;24.80;;;;;;4962398;29;20040;-87
2023/05/02 07:52:03;;;;;;;6.20;4.18;;;33.30;24.70;;;;;;4940869;29;20078;-88
2023/05/02 07:54:29;;;;;;;4.25;1.60;;;32.80;24.90;;;;;;4945848;29;20027;-85
2023/05/02 07:56:57;;;;;;;1.23;0.70;;;32.20;24.90;;;;;;4950306;29;20047;-86
2023/05/02 07:59:23;;;;;;;3.38;0.93;;;31.60;25.00;;;;;;4947339;29;20027;-87
2023/05/02 08:01:49;;;;;;;2.60;1.40;;;31.80;25.30;;;;;;4940463;29;20055;-86
2023/05/02 08:04:15;;;;;;;3.08;0.93;;;32.60;25.60;;;;;;4953903;29;20039;-87
2023/05/02 08:06:43;;;;;;;3.50;1.40;;;33.30;25.00;;;;;;4938438;29;20103;-87
2023/05/02 08:09:09;;;;;;;3.47;1.33;;;33.30;24.70;;;;;;4955665;28;20248;-88
2023/05/02 08:11:35;;;;;;;2.57;1.20;;;33.70;24.60;;;;;;4977459;28;20163;-86
2023/05/02 08:14:01;;;;;;;1.73;1.20;;;33.80;24.40;;;;;;4981329;28;20081;-89
2023/05/02 08:16:27;;;;;;;2.90;1.25;;;33.60;24.30;;;;;;4978497;28;20450;-87
2023/05/02 08:18:53;;;;;;;3.87;1.00;;;32.90;24.40;;;;;;4985850;28;20062;-87
2023/05/02 08:21:19;;;;;;;1.30;1.20;;;33.10;24.50;;;;;;4969579;28;20030;-89
2023/05/02 08:23:45;;;;;;;1.90;1.07;;;32.50;24.00;;;;;;4984735;28;20069;-86
2023/05/02 08:26:11;;;;;;;1.20;0.90;;;31.80;24.40;;;;;;4961591;28;20022;-88
2023/05/02 08:28:37;;;;;;;1.70;1.23;;;31.60;24.30;;;;;;4992936;28;20057;-88
2023/05/02 08:31:05;;;;;;;4.50;1.17;;;31.70;25.20;;;;;;4985397;28;20076;-87
2023/05/02 08:33:31;;;;;;;3.35;1.00;;;32.20;24.50;;;;;;4948858;29;20043;-87
2023/05/02 08:35:57;;;;;;;3.17;1.00;;;31.90;24.50;;;;;;4943252;29;20036;-87
2023/05/02 08:38:23;;;;;;;2.90;1.07;;;31.90;24.70;;;;;;4942626;29;20043;-86
2023/05/02 08:40:49;;;;;;;2.00;1.23;;;32.50;24.60;;;;;;4942058;29;20052;-86
2023/05/02 08:43:18;;;;;;;2.38;1.30;;;32.90;24.70;;;;;;4944851;29;20035;-89
2023/05/02 08:45:44;;;;;;;3.58;1.23;;;32.70;24.50;;;;;;4953703;29;20039;-89
2023/05/02 08:48:12;;;;;;;3.40;0.90;;;32.70;24.20;;;;;;4947398;29;20032;-89
2023/05/02 08:50:44;;;;;;;1.40;0.65;;;32.90;24.10;;;;;;4967303;29;20200;-86
2023/05/02 08:53:13;;;;;;;3.30;1.90;;;33.40;24.20;;;;;;4961526;29;20043;-87
2023/05/02 08:55:40;;;;;;;4.47;0.90;;;33.30;24.10;;;;;;4937132;29;20031;-88
2023/05/02 08:58:08;;;;;;;4.72;1.40;;;33.80;23.90;;;;;;4937385;29;20035;-89
2023/05/02 09:00:41;;;;;;;1.90;1.23;;;34.30;24.00;;;;;;4940927;29;20034;-87
2023/05/02 09:03:07;;;;;;;4.30;1.98;;;35.00;24.00;;;;;;4939848;29;20031;-87
2023/05/02 09:05:40;;;;;;;5.30;1.75;;;34.90;23.90;;;;;;4979562;28;20038;-89
2023/05/02 09:08:07;;;;;;;2.28;1.00;;;35.20;23.90;;;;;;4994890;28;20033;-90
2023/05/02 09:10:37;;;;;;;7.57;1.48;;;35.40;23.40;;;;;;4985131;28;20093;-90
2023/05/02 09:13:40;;;;;;;2.03;1.25;;;34.70;23.40;;;;;;4985745;28;20090;-88
2023/05/02 09:16:16;;;;;;;4.25;1.23;;;34.10;23.80;;;;;;4934513;29;20492;-85
2023/05/02 09:18:49;;;;;;;3.63;0.90;;;33.20;23.40;;;;;;4960419;29;20032;-86
2023/05/02 09:21:19;;;;;;;3.75;1.20;;;32.70;23.60;;;;;;4954774;29;20405;-86
2023/05/02 09:23:50;;;;;;;2.45;1.45;;;32.40;23.90;;;;;;4945339;29;20044;-87
2023/05/02 09:26:21;;;;;;;5.20;1.80;;;31.50;24.40;;;;;;4942940;29;20083;-86
2023/05/02 09:28:50;;;;;;;7.95;1.85;;;32.10;24.30;;;;;;4938086;29;20035;-87
2023/05/02 09:31:27;;;;;;;3.60;1.25;;;32.70;24.40;;;;;;4921103;29;20040;-86
2023/05/02 09:33:54;;;;;;;2.65;1.15;;;33.20;24.20;;;;;;4915439;29;20127;-86
2023/05/02 09:36:20;;;;;;;2.15;1.02;;;32.80;24.10;;;;;;4912499;29;20088;-88
2023/05/02 09:38:50;;;;;;;2.28;1.10;;;33.30;23.90;;;;;;4901737;29;20036;-89
2023/05/02 09:41:20;;;;;;;2.50;1.25;;;33.50;23.70;;;;;;4912201;29;20095;-88
2023/05/02 09:43:56;;;;;;;5.60;1.42;;;33.00;23.90;;;;;;4940249;29;20040;-89
2023/05/02 09:46:22;;;;;;;2.80;0.97;;;32.40;24.10;;;;;;4933488;29;20032;-88
2023/05/02 09:48:54;;;;;;;2.88;1.02;;;32.20;24.30;;;;;;4938569;29;20040;-88
2023/05/02 09:51:22;;;;;;;8.90;4.15;;;32.00;24.00;;;;;;4952856;28;20035;-86
2023/05/02 09:53:48;;;;;;;4.07;1.48;;;31.20;24.20;;;;;;4952072;28;20058;-88
2023/05/02 09:56:14;;;;;;;;;;;30.70;24.20;;;;;;4960842;28;20031;-88
2023/05/02 09:58:40;;;;;;;6.50;1.38;;;30.30;24.90;;;;;;4940776;28;20006;-89
2023/05/02 10:01:07;;;;;;;3.78;1.20;;;30.70;24.60;;;;;;4977128;28;20026;-86
2023/05/02 10:03:36;;;;;;;3.03;1.77;;;30.60;24.30;;;;;;4977820;28;20034;-87
2023/05/02 10:06:07;;;;;;;2.97;1.33;;;30.30;24.40;;;;;;4981156;28;20046;-88
2023/05/02 10:08:34;;;;;;;1.40;1.10;;;30.50;24.40;;;;;;4959669;28;20129;-86
2023/05/02 10:11:02;;;;;;;2.13;1.33;;;31.10;24.80;;;;;;4986015;28;20027;-88
2023/05/02 10:13:31;;;;;;;4.38;1.20;;;31.70;24.30;;;;;;4981448;28;20042;-90
2023/05/02 10:16:02;;;;;;;4.03;1.15;;;32.20;24.10;;;;;;4990240;28;20021;-88
2023/05/02 10:18:37;;;;;;;1.98;1.20;;;32.40;24.30;;;;;;5002816;28;20050;-87
2023/05/02 10:21:19;;;;;;;2.05;1.30;;;32.20;24.80;;;;;;4980667;28;20031;-89
2023/05/02 10:23:45;;;;;;;2.70;1.25;;;31.30;24.00;;;;;;4972260;28;20071;-87
2023/05/02 10:26:15;;;;;;;2.00;1.27;;;29.10;24.30;;;;;;4968588;28;20027;-88
2023/05/02 10:28:42;;;;;;;2.78;1.52;;;;;;;;;;4982802;28;20054;-86
2023/05/02 10:31:13;;;;;;;4.40;1.77;;;26.70;25.50;;;;;;4986376;28;20033;-87
2023/05/02 10:33:39;;;;;;;5.32;3.10;;;23.30;28.20;;;;;;4998389;28;20062;-85
2023/05/02 10:36:08;;;;;;;3.60;1.92;;;22.00;29.10;;;;;;4995160;28;20038;-87
2023/05/02 10:38:35;;;;;;;2.35;1.60;;;21.10;29.60;;;;;;4984674;28;20237;-86
2023/05/02 10:41:08;;;;;;;4.43;1.65;;;20.20;30.50;;;;;;4995455;28;20105;-86
2023/05/02 10:43:36;;;;;;;5.03;1.63;;;19.30;31.30;;;;;;4968579;28;20030;-86
2023/05/02 10:46:48;;;;;;;6.10;2.55;;;18.70;32.10;;;;;;4988337;28;20022;-88
2023/05/02 10:49:14;;;;;;;2.28;1.67;;;18.30;32.60;;;;;;4968121;28;20038;-84
2023/05/02 10:51:42;;;;;;;4.50;1.92;;;17.80;33.10;;;;;;4976858;28;20110;-88
2023/05/02 10:54:22;;;;;;;3.25;1.42;;;17.40;33.60;;;;;;4961579;28;20019;-89
2023/05/02 10:57:03;;;;;;;1.80;1.13;;;17.30;35.10;;;;;;4958878;28;20026;-88
2023/05/02 10:59:30;;;;;;;3.97;2.05;;;17.00;34.20;;;;;;4949006;29;20472;-84
2023/05/02 11:01:56;;;;;;;2.25;1.52;;;16.90;34.80;;;;;;4982095;28;20043;-87
2023/05/02 11:04:23;;;;;;;2.57;1.60;;;16.80;34.60;;;;;;4993526;28;20091;-88
2023/05/02 11:06:58;;;;;;;3.28;1.70;;;16.50;34.70;;;;;;4983564;28;20042;-86
2023/05/02 11:09:24;;;;;;;4.55;1.90;;;16.20;35.30;;;;;;4982240;28;20022;-87
2023/05/02 11:11:53;;;;;;;4.18;1.67;;;16.10;35.60;;;;;;4993193;28;20034;-88
2023/05/02 11:14:47;;;;;;;4.97;2.15;;;15.80;35.70;;;;;;4973629;28;20047;-86
2023/05/02 11:17:13;;;;;;;4.85;1.20;;;15.60;36.20;;;;;;4962089;28;20035;-86
2023/05/02 11:19:45;;;;;;;2.92;1.42;;;15.50;37.40;;;;;;4965541;28;20044;-86
2023/05/02 11:22:19;;;;;;;2.47;1.83;;;15.60;37.20;;;;;;4944612;28;20032;-86
2023/05/02 11:24:46;;;;;;;1.77;1.23;;;15.50;36.70;;;;;;4955948;29;20031;-86
2023/05/02 11:27:32;;;;;;;4.20;1.90;;;15.40;37.40;;;;;;4956154;28;20027;-87
2023/05/02 11:30:08;;;;;;;3.75;1.73;;;15.40;37.10;;;;;;4939493;29;20023;-85
2023/05/02 11:32:48;;;;;;;4.57;1.33;;;15.40;37.40;;;;;;4955159;28;20038;-86
2023/05/02 11:35:19;;;;;;;4.38;2.58;;;15.40;37.30;;;;;;4941662;29;20042;-87
2023/05/02 11:38:05;;;;;;;4.07;1.92;;;15.50;37.50;;;;;;4958131;28;20050;-85
2023/05/02 11:40:31;;;;;;;3.55;1.83;;;15.50;37.10;;;;;;4937904;29;20497;-86
2023/05/02 11:42:59;;;;;;;7.65;3.38;;;15.50;37.30;;;;;;4952227;29;20580;-86
2023/05/02 11:45:38;;;;;;;;;;;15.50;38.20;;;;;;4940846;29;20494;-85
2023/05/02 11:48:07;;;;;;;8.30;2.70;;;15.50;37.70;;;;;;4972389;28;19907;-87
2023/05/02 11:50:54;;;;;;;4.25;1.95;;;15.50;37.30;;;;;;4976375;28;20023;-86
2023/05/02 11:53:23;;;;;;;4.05;1.63;;;15.50;37.00;;;;;;4951557;29;20480;-86
2023/05/02 11:56:01;;;;;;;2.78;1.95;;;15.40;37.20;;;;;;4987324;28;20054;-86
2023/05/02 11:58:31;;;;;;;4.78;1.50;;;15.40;37.80;;;;;;4987270;28;20046;-89
2023/05/02 12:00:58;;;;;;;4.93;2.08;;;15.40;37.60;;;;;;5001633;28;20055;-86
2023/05/02 12:03:32;;;;;;;2.72;1.40;;;15.40;38.00;;;;;;4971147;28;20543;-86
2023/05/02 12:06:15;;;;;;;3.67;2.00;;;15.50;37.50;;;;;;4981120;28;20046;-86
2023/05/02 12:08:42;;;;;;;3.85;1.77;;;15.50;37.60;;;;;;4982101;28;20050;-88
2023/05/02 12:11:09;;;;;;;3.67;2.10;;;15.60;37.60;;;;;;4977315;28;20053;-87
2023/05/02 12:13:42;;;;;;;4.70;1.90;;;15.60;38.10;;;;;;4964392;28;20043;-88
2023/05/02 12:16:08;;;;;;;4.22;1.98;;;15.70;37.60;;;;;;4942000;28;20026;-85
2023/05/02 12:18:35;;;;;;;5.45;1.95;;;15.60;37.30;;;;;;4976733;28;20060;-86
2023/05/02 12:21:01;;;;;;;3.85;1.48;;;15.50;37.30;;;;;;4962926;28;20362;-86
2023/05/02 12:23:27;;;;;;;6.65;2.00;;;15.40;37.30;;;;;;4976839;28;20046;-86
2023/05/02 12:25:53;;;;;;;2.58;1.42;;;15.40;38.00;;;;;;4976657;28;20038;-86
2023/05/02 12:28:19;;;;;;;5.63;1.60;;;15.30;37.90;;;;;;4977306;28;20030;-86
2023/05/02 12:30:47;;;;;;;4.75;1.83;;;15.30;38.00;;;;;;4973302;28;20491;-85
2023/05/02 12:33:15;;;;;;;1.67;1.38;;;15.30;38.20;;;;;;4978247;28;20034;-86
2023/05/02 12:35:42;;;;;;;5.30;1.48;;;15.30;38.10;;;;;;4962726;28;20062;-85
2023/05/02 12:38:17;;;;;;;3.63;1.60;;;15.30;38.00;;;;;;4951621;28;20130;-82
2023/05/02 12:40:56;;;;;;;5.43;2.35;;;15.30;38.20;;;;;;4974250;28;20027;-85
2023/05/02 12:43:22;;;;;;;6.25;1.80;;;15.40;38.70;;;;;;4977891;28;20015;-84
2023/05/02 12:45:49;;;;;;;3.10;1.20;;;15.30;38.50;;;;;;4983417;28;20019;-86
2023/05/02 12:48:26;;;;;;;2.88;1.65;;;15.30;38.30;;;;;;4980748;28;20165;-86
2023/05/02 12:50:53;;;;;;;4.38;1.98;;;15.20;38.70;;;;;;4983503;28;20486;-86
2023/05/02 12:53:38;;;;;;;;;;;15.20;39.50;;;;;;4963945;28;20369;-84
2023/05/02 12:56:05;;;;;;;4.28;2.03;;;15.30;39.00;;;;;;4977398;28;19910;-85
2023/05/02 12:58:40;;;;;;;1.80;1.47;;;15.40;39.40;;;;;;4979931;28;20023;-87
2023/05/02 13:01:07;;;;;;;6.43;2.03;;;15.50;38.60;;;;;;4961689;28;20287;-86